createdAt,value
2018-11-10T00:00:18.188Z,11.50
2018-11-10T00:02:47.546Z,11.50
2018-11-10T00:05:16.546Z,11.81
2018-11-10T00:07:44.939Z,11.33
2018-11-10T00:10:13.230Z,11.63
2018-11-10T00:12:41.591Z,11.63
2018-11-10T00:15:12.190Z,11.54
2018-11-10T00:17:40.563Z,11.67
2018-11-10T00:20:10.739Z,11.80
2018-11-10T00:22:40.174Z,11.63
2018-11-10T00:25:09.996Z,11.63
2018-11-10T00:27:38.342Z,11.53
2018-11-10T00:30:08.499Z,11.78
2018-11-10T00:32:36.859Z,11.83
2018-11-10T00:35:05.798Z,11.81
2018-11-10T00:37:34.178Z,11.41
2018-11-10T00:40:02.502Z,11.45
2018-11-10T00:42:30.870Z,11.74
2018-11-10T00:44:59.206Z,11.49
2018-11-10T00:47:27.719Z,11.46
2018-11-10T00:49:56.070Z,11.53
2018-11-10T00:52:24.410Z,11.71
2018-11-10T00:54:53.225Z,11.47
2018-11-10T00:57:21.570Z,11.36
2018-11-10T00:59:49.927Z,11.39
2018-11-10T01:02:18.262Z,11.61
2018-11-10T01:04:46.598Z,11.71
2018-11-10T01:07:14.926Z,11.85
2018-11-10T01:09:43.335Z,11.83
2018-11-10T01:12:11.723Z,11.45
2018-11-10T01:14:40.174Z,11.50
2018-11-10T01:17:08.518Z,11.78
2018-11-10T01:19:36.874Z,11.51
2018-11-10T01:22:06.018Z,11.74
2018-11-10T01:24:34.366Z,11.63
2018-11-10T01:27:02.674Z,11.72
2018-11-10T01:29:31.066Z,11.84
2018-11-10T01:31:59.390Z,11.63
2018-11-10T01:34:27.734Z,11.50
2018-11-10T01:36:56.059Z,11.23
2018-11-10T01:39:24.429Z,11.39
2018-11-10T01:41:52.735Z,11.48
2018-11-10T01:44:21.047Z,11.09
2018-11-10T01:46:49.414Z,11.28
2018-11-10T01:49:17.742Z,11.29
2018-11-10T01:51:46.172Z,11.22
2018-11-10T01:54:14.890Z,11.30
2018-11-10T01:56:43.231Z,11.25
2018-11-10T01:59:11.555Z,11.39
2018-11-10T02:01:39.901Z,11.35
2018-11-10T02:04:08.214Z,11.41
2018-11-10T02:06:36.588Z,11.49
2018-11-10T02:09:06.962Z,11.35
2018-11-10T02:11:35.543Z,11.11
2018-11-10T02:14:04.163Z,11.18
2018-11-10T02:16:32.515Z,11.23
2018-11-10T02:19:00.854Z,11.36
2018-11-10T02:21:29.285Z,11.25
2018-11-10T02:23:57.631Z,11.26
2018-11-10T02:26:26.034Z,11.18
2018-11-10T02:28:54.370Z,11.05
2018-11-10T02:31:22.762Z,10.82
2018-11-10T02:33:51.117Z,11.10
2018-11-10T02:36:19.405Z,11.35
2018-11-10T02:38:47.825Z,11.07
2018-11-10T02:41:16.183Z,10.85
2018-11-10T02:43:44.534Z,10.86
2018-11-10T02:46:12.859Z,10.88
2018-11-10T02:48:41.207Z,11.01
2018-11-10T02:51:09.575Z,10.83
2018-11-10T02:53:37.922Z,10.99
2018-11-10T02:56:06.286Z,10.85
2018-11-10T02:58:34.623Z,10.96
2018-11-10T03:01:03.016Z,10.85
2018-11-10T03:03:31.430Z,10.60
2018-11-10T03:05:59.758Z,10.71
2018-11-10T03:08:28.122Z,10.77
2018-11-10T03:10:56.557Z,11.02
2018-11-10T03:13:24.805Z,11.13
2018-11-10T03:15:53.135Z,10.77
2018-11-10T03:18:21.726Z,10.54
2018-11-10T03:20:50.047Z,10.60
2018-11-10T03:23:18.410Z,10.75
2018-11-10T03:25:46.722Z,10.93
2018-11-10T03:28:15.127Z,10.99
2018-11-10T03:30:43.434Z,10.98
2018-11-10T03:33:11.734Z,11.07
2018-11-10T03:35:40.062Z,11.15
2018-11-10T03:38:08.390Z,11.36
2018-11-10T03:40:36.778Z,10.85
2018-11-10T03:43:05.515Z,10.95
2018-11-10T03:45:33.874Z,10.84
2018-11-10T03:48:02.186Z,10.96
2018-11-10T03:50:30.552Z,11.02
2018-11-10T03:52:58.891Z,10.95
2018-11-10T03:55:27.326Z,10.97
2018-11-10T03:57:55.682Z,10.72
2018-11-10T04:00:24.018Z,10.81
2018-11-10T04:02:52.331Z,10.86
2018-11-10T04:05:20.686Z,10.88
2018-11-10T04:07:49.008Z,10.79
2018-11-10T04:10:17.359Z,10.37
2018-11-10T04:12:45.714Z,10.75
2018-11-10T04:15:14.137Z,10.85
2018-11-10T04:17:42.489Z,10.66
2018-11-10T04:20:11.278Z,10.68
2018-11-10T04:22:39.618Z,10.56
2018-11-10T04:25:09.290Z,10.39
2018-11-10T04:27:37.671Z,10.43
2018-11-10T04:30:07.481Z,10.51
2018-11-10T04:32:36.622Z,10.42
2018-11-10T04:35:05.594Z,10.41
2018-11-10T04:37:33.914Z,10.62
2018-11-10T04:40:02.455Z,10.72
2018-11-10T04:42:30.791Z,10.66
2018-11-10T04:44:59.098Z,10.66
2018-11-10T04:47:27.499Z,10.85
2018-11-10T04:49:55.867Z,10.66
2018-11-10T04:52:24.143Z,10.74
2018-11-10T04:54:52.791Z,10.84
2018-11-10T04:57:21.122Z,10.93
2018-11-10T04:59:49.476Z,10.82
2018-11-10T05:02:17.810Z,10.89
2018-11-10T05:04:46.133Z,10.89
2018-11-10T05:07:14.510Z,10.45
2018-11-10T05:09:42.858Z,10.74
2018-11-10T05:12:11.219Z,10.70
2018-11-10T05:14:39.619Z,10.68
2018-11-10T05:17:07.954Z,10.76
2018-11-10T05:19:36.394Z,10.82
2018-11-10T05:22:04.743Z,10.63
2018-11-10T05:24:33.120Z,10.82
2018-11-10T05:27:01.427Z,10.97
2018-11-10T05:29:29.809Z,10.71
2018-11-10T05:31:58.126Z,10.66
2018-11-10T05:34:26.466Z,10.44
2018-11-10T05:36:54.787Z,10.55
2018-11-10T05:39:23.126Z,10.15
2018-11-10T05:41:51.463Z,10.21
2018-11-10T05:44:19.814Z,10.05
2018-11-10T05:46:48.123Z,10.21
2018-11-10T05:49:17.222Z,10.42
2018-11-10T05:51:45.571Z,10.32
2018-11-10T05:54:14.002Z,10.32
2018-11-10T05:56:42.314Z,10.32
2018-11-10T05:59:10.762Z,10.33
2018-11-10T06:01:39.086Z,10.47
2018-11-10T06:04:07.448Z,10.37
2018-11-10T06:06:35.762Z,10.18
2018-11-10T06:09:05.567Z,10.33
2018-11-10T06:11:33.854Z,10.19
2018-11-10T06:14:02.179Z,10.16
2018-11-10T06:16:30.538Z,10.11
2018-11-10T06:18:58.900Z,10.31
2018-11-10T06:21:27.223Z,10.27
2018-11-10T06:23:55.571Z,10.35
2018-11-10T06:26:23.923Z,10.41
2018-11-10T06:28:52.252Z,10.39
2018-11-10T06:31:20.599Z,10.44
2018-11-10T06:33:49.843Z,10.66
2018-11-10T06:36:18.203Z,10.60
2018-11-10T06:38:46.507Z,10.59
2018-11-10T06:41:14.855Z,10.58
2018-11-10T06:43:43.173Z,10.53
2018-11-10T06:46:11.514Z,10.60
2018-11-10T06:48:40.138Z,10.51
2018-11-10T06:51:08.684Z,10.32
2018-11-10T06:53:37.010Z,10.52
2018-11-10T06:56:05.564Z,10.41
2018-11-10T06:58:33.906Z,10.53
2018-11-10T07:01:02.270Z,10.51
2018-11-10T07:03:30.679Z,10.39
2018-11-10T07:05:58.974Z,10.56
2018-11-10T07:08:27.295Z,10.48
2018-11-10T07:10:55.750Z,10.38
2018-11-10T07:13:24.102Z,10.74
2018-11-10T07:15:52.494Z,10.53
2018-11-10T07:18:20.814Z,10.73
2018-11-10T07:20:49.127Z,10.88
2018-11-10T07:23:17.571Z,10.70
2018-11-10T07:25:46.570Z,10.78
2018-11-10T07:28:14.918Z,10.67
2018-11-10T07:30:43.248Z,10.79
2018-11-10T07:33:11.613Z,10.86
2018-11-10T07:35:39.910Z,10.57
2018-11-10T07:38:08.264Z,10.52
2018-11-10T07:40:36.703Z,10.68
2018-11-10T07:43:05.300Z,10.82
2018-11-10T07:45:33.631Z,10.86
2018-11-10T07:48:02.073Z,10.96
2018-11-10T07:50:30.399Z,11.06
2018-11-10T07:52:58.823Z,10.98
2018-11-10T07:55:27.214Z,11.04
2018-11-10T07:57:55.566Z,10.94
2018-11-10T08:00:23.896Z,10.97
2018-11-10T08:02:52.208Z,11.06
2018-11-10T08:05:20.638Z,11.06
2018-11-10T08:07:48.943Z,11.05
2018-11-10T08:10:17.386Z,11.22
2018-11-10T08:12:45.706Z,11.19
2018-11-10T08:15:16.234Z,10.86
2018-11-10T08:17:44.638Z,11.01
2018-11-10T08:20:13.467Z,10.96
2018-11-10T08:22:41.862Z,11.18
2018-11-10T08:25:12.371Z,11.02
2018-11-10T08:27:40.633Z,11.23
2018-11-10T08:30:11.215Z,11.42
2018-11-10T08:32:39.783Z,11.45
2018-11-10T08:35:09.978Z,11.35
2018-11-10T08:37:38.445Z,11.43
2018-11-10T08:40:08.913Z,11.47
2018-11-10T08:42:37.350Z,11.27
2018-11-10T08:45:07.145Z,11.44
2018-11-10T08:47:35.439Z,11.66
2018-11-10T08:50:04.053Z,11.48
2018-11-10T08:52:32.338Z,11.56
2018-11-10T08:55:00.630Z,11.59
2018-11-10T08:57:28.959Z,11.39
2018-11-10T08:59:57.208Z,11.61
2018-11-10T09:02:25.496Z,11.64
2018-11-10T09:04:53.786Z,11.60
2018-11-10T09:07:22.061Z,11.59
2018-11-10T09:09:50.472Z,11.74
2018-11-10T09:12:18.725Z,11.82
2018-11-10T09:14:47.041Z,11.66
2018-11-10T09:17:15.342Z,11.70
2018-11-10T09:19:43.630Z,11.62
2018-11-10T09:22:11.974Z,11.82
2018-11-10T09:24:40.266Z,11.45
2018-11-10T09:27:08.585Z,11.62
2018-11-10T09:29:36.870Z,11.88
2018-11-10T09:32:05.517Z,11.85
2018-11-10T09:34:33.870Z,11.74
2018-11-10T09:37:02.190Z,11.78
2018-11-10T09:39:30.473Z,11.92
2018-11-10T09:41:58.821Z,12.08
2018-11-10T09:44:27.082Z,12.02
2018-11-10T09:46:55.374Z,12.12
2018-11-10T09:49:23.789Z,12.11
2018-11-10T09:51:52.090Z,12.19
2018-11-10T09:54:20.448Z,12.49
2018-11-10T09:56:48.769Z,12.55
2018-11-10T09:59:17.087Z,12.69
2018-11-10T10:01:45.532Z,12.55
2018-11-10T10:04:13.702Z,12.77
2018-11-10T10:06:42.006Z,12.68
2018-11-10T10:09:11.331Z,12.89
2018-11-10T10:11:40.298Z,12.62
2018-11-10T10:14:09.518Z,12.48
2018-11-10T10:16:37.918Z,12.69
2018-11-10T10:19:08.221Z,12.71
2018-11-10T10:21:36.592Z,12.91
2018-11-10T10:24:05.274Z,12.82
2018-11-10T10:26:33.625Z,12.98
2018-11-10T10:29:02.020Z,13.09
2018-11-10T10:31:30.242Z,13.12
2018-11-10T10:33:58.588Z,12.77
2018-11-10T10:36:26.858Z,13.04
2018-11-10T10:38:55.242Z,12.72
2018-11-10T10:41:23.534Z,13.00
2018-11-10T10:43:51.822Z,13.29
2018-11-10T10:46:20.165Z,13.25
2018-11-10T10:48:48.482Z,13.26
2018-11-10T10:51:16.798Z,13.23
2018-11-10T10:53:45.186Z,13.38
2018-11-10T10:56:13.527Z,13.60
2018-11-10T10:58:41.802Z,13.38
2018-11-10T11:01:15.537Z,13.62
2018-11-10T11:03:49.282Z,13.71
2018-11-10T11:06:17.599Z,14.20
2018-11-10T11:08:45.929Z,14.05
2018-11-10T11:11:14.267Z,13.94
2018-11-10T11:13:42.545Z,14.30
2018-11-10T11:16:10.859Z,14.28
2018-11-10T11:18:39.598Z,14.46
2018-11-10T11:21:07.906Z,14.03
2018-11-10T11:23:36.373Z,14.34
2018-11-10T11:26:04.958Z,14.21
2018-11-10T11:28:33.234Z,14.30
2018-11-10T11:31:01.604Z,14.15
2018-11-10T11:33:29.843Z,14.26
2018-11-10T11:35:58.257Z,14.62
2018-11-10T11:38:26.569Z,14.43
2018-11-10T11:40:54.857Z,14.45
2018-11-10T11:43:23.190Z,14.18
2018-11-10T11:45:51.491Z,14.36
2018-11-10T11:48:19.814Z,14.33
2018-11-10T11:50:48.198Z,14.47
2018-11-10T11:53:16.507Z,14.52
2018-11-10T11:55:44.794Z,14.58
2018-11-10T11:58:13.245Z,14.32
2018-11-10T12:00:41.426Z,14.66
2018-11-10T12:03:09.746Z,14.76
2018-11-10T12:05:38.047Z,14.52
2018-11-10T12:08:06.350Z,14.69
2018-11-10T12:10:34.657Z,14.72
2018-11-10T12:13:02.968Z,14.87
2018-11-10T12:15:31.336Z,14.70
2018-11-10T12:17:59.561Z,14.57
2018-11-10T12:20:27.838Z,14.60
2018-11-10T12:22:56.217Z,14.84
2018-11-10T12:25:24.497Z,14.91
2018-11-10T12:27:52.894Z,14.69
2018-11-10T12:30:21.191Z,15.16
2018-11-10T12:32:49.538Z,15.21
2018-11-10T12:35:17.852Z,15.08
2018-11-10T12:37:46.141Z,15.14
2018-11-10T12:40:14.802Z,15.37
2018-11-10T12:42:43.458Z,15.47
2018-11-10T12:45:12.785Z,15.47
2018-11-10T12:47:41.706Z,15.58
2018-11-10T12:50:11.915Z,15.15
2018-11-10T12:52:41.178Z,15.06
2018-11-10T12:55:10.836Z,15.16
2018-11-10T12:57:39.462Z,15.12
2018-11-10T13:00:08.905Z,14.85
2018-11-10T13:02:38.183Z,14.81
2018-11-10T13:05:07.392Z,14.58
2018-11-10T13:07:36.749Z,14.70
2018-11-10T13:10:05.742Z,14.74
2018-11-10T13:12:34.009Z,14.85
2018-11-10T13:15:02.289Z,14.75
2018-11-10T13:17:30.656Z,14.71
2018-11-10T13:19:58.886Z,14.47
2018-11-10T13:22:27.198Z,14.48
2018-11-10T13:24:55.695Z,14.55
2018-11-10T13:27:23.977Z,14.33
2018-11-10T13:29:52.457Z,14.22
2018-11-10T13:32:20.771Z,14.26
2018-11-10T13:34:49.046Z,14.30
2018-11-10T13:37:17.322Z,14.23
2018-11-10T13:39:45.709Z,14.37
2018-11-10T13:42:13.982Z,14.45
2018-11-10T13:44:42.281Z,14.11
2018-11-10T13:47:10.591Z,14.29
2018-11-10T13:49:38.869Z,14.30
2018-11-10T13:52:07.442Z,14.16
2018-11-10T13:54:35.558Z,14.14
2018-11-10T13:57:03.845Z,13.91
2018-11-10T13:59:32.273Z,14.06
2018-11-10T14:02:00.426Z,13.97
2018-11-10T14:04:28.714Z,13.94
2018-11-10T14:06:57.214Z,14.09
2018-11-10T14:09:25.505Z,13.87
2018-11-10T14:11:53.873Z,13.92
2018-11-10T14:14:22.254Z,13.75
2018-11-10T14:16:50.541Z,13.50
2018-11-10T14:19:18.836Z,13.64
2018-11-10T14:21:47.125Z,13.72
2018-11-10T14:24:15.909Z,13.63
2018-11-10T14:26:44.197Z,13.72
2018-11-10T14:29:12.518Z,13.67
2018-11-10T14:31:40.856Z,13.68
2018-11-10T14:34:09.137Z,13.51
2018-11-10T14:36:37.459Z,13.63
2018-11-10T14:39:08.406Z,13.48
2018-11-10T14:41:36.736Z,13.55
2018-11-10T14:44:05.423Z,13.34
2018-11-10T14:46:33.754Z,13.46
2018-11-10T14:49:02.057Z,13.37
2018-11-10T14:51:30.358Z,13.54
2018-11-10T14:53:58.648Z,13.53
2018-11-10T14:56:27.029Z,13.43
2018-11-10T14:58:55.334Z,13.56
2018-11-10T15:01:23.618Z,13.53
2018-11-10T15:03:51.922Z,13.56
2018-11-10T15:06:20.206Z,13.36
2018-11-10T15:08:48.520Z,13.44
2018-11-10T15:11:16.810Z,13.43
2018-11-10T15:13:45.114Z,13.32
2018-11-10T15:16:13.398Z,13.48
2018-11-10T15:18:41.702Z,13.52
2018-11-10T15:21:10.015Z,13.48
2018-11-10T15:23:38.322Z,13.32
2018-11-10T15:26:06.634Z,13.44
2018-11-10T15:28:34.943Z,13.41
2018-11-10T15:31:03.230Z,13.27
2018-11-10T15:33:31.610Z,13.34
2018-11-10T15:35:59.942Z,13.28
2018-11-10T15:38:28.255Z,13.40
2018-11-10T15:40:57.084Z,13.21
2018-11-10T15:43:25.510Z,13.34
2018-11-10T15:45:53.945Z,13.24
2018-11-10T15:48:22.246Z,13.39
2018-11-10T15:50:50.542Z,13.26
2018-11-10T15:53:18.850Z,13.15
2018-11-10T15:55:47.606Z,13.23
2018-11-10T15:58:15.910Z,13.07
2018-11-10T16:00:44.228Z,12.91
2018-11-10T16:03:12.625Z,13.24
2018-11-10T16:05:40.914Z,13.02
2018-11-10T16:08:09.695Z,13.18
2018-11-10T16:10:38.252Z,13.08
2018-11-10T16:13:06.563Z,12.98
2018-11-10T16:15:34.918Z,13.15
2018-11-10T16:18:03.298Z,13.23
2018-11-10T16:20:31.658Z,13.23
2018-11-10T16:22:59.901Z,13.06
2018-11-10T16:25:28.470Z,13.04
2018-11-10T16:27:56.785Z,13.23
2018-11-10T16:30:25.078Z,12.99
2018-11-10T16:32:53.389Z,13.04
2018-11-10T16:35:21.683Z,12.72
2018-11-10T16:37:49.972Z,12.96
2018-11-10T16:40:19.669Z,12.93
2018-11-10T16:42:48.802Z,12.71
2018-11-10T16:45:18.187Z,12.89
2018-11-10T16:47:46.498Z,12.82
2018-11-10T16:50:14.798Z,12.71
2018-11-10T16:52:43.807Z,12.85
2018-11-10T16:55:12.182Z,12.89
2018-11-10T16:57:40.593Z,12.63
2018-11-10T17:00:11.858Z,12.72
2018-11-10T17:02:40.145Z,12.74
2018-11-10T17:05:08.784Z,12.81
2018-11-10T17:07:37.070Z,12.89
2018-11-10T17:10:06.934Z,12.45
2018-11-10T17:12:35.302Z,12.38
2018-11-10T17:15:03.618Z,12.54
2018-11-10T17:17:31.918Z,12.29
2018-11-10T17:20:00.234Z,12.19
2018-11-10T17:22:28.566Z,12.01
2018-11-10T17:24:56.854Z,11.88
2018-11-10T17:27:25.158Z,12.04
2018-11-10T17:29:53.476Z,12.03
2018-11-10T17:32:21.957Z,11.78
2018-11-10T17:34:50.249Z,11.79
2018-11-10T17:37:18.550Z,11.80
2018-11-10T17:39:46.996Z,11.81
2018-11-10T17:42:15.278Z,11.75
2018-11-10T17:44:43.758Z,11.65
2018-11-10T17:47:12.066Z,11.78
2018-11-10T17:49:40.370Z,11.71
2018-11-10T17:52:09.390Z,11.74
2018-11-10T17:54:37.678Z,11.67
2018-11-10T17:57:06.722Z,11.67
2018-11-10T17:59:35.019Z,11.80
2018-11-10T18:02:03.596Z,11.81
2018-11-10T18:04:31.874Z,11.83
2018-11-10T18:07:00.192Z,11.98
2018-11-10T18:09:28.481Z,12.00
2018-11-10T18:11:56.801Z,11.96
2018-11-10T18:14:25.174Z,11.72
2018-11-10T18:16:53.548Z,11.88
2018-11-10T18:19:21.883Z,11.79
2018-11-10T18:21:50.884Z,11.78
2018-11-10T18:24:19.230Z,11.78
2018-11-10T18:26:47.554Z,11.77
2018-11-10T18:29:16.318Z,11.88
2018-11-10T18:31:44.724Z,11.89
2018-11-10T18:34:13.538Z,11.85
2018-11-10T18:36:41.826Z,11.67
2018-11-10T18:39:10.655Z,11.65
2018-11-10T18:41:39.291Z,11.76
2018-11-10T18:44:07.870Z,11.79
2018-11-10T18:46:36.304Z,11.90
2018-11-10T18:49:04.601Z,11.90
2018-11-10T18:51:32.922Z,11.82
2018-11-10T18:54:01.276Z,11.79
2018-11-10T18:56:29.669Z,11.61
2018-11-10T18:58:58.012Z,11.78
2018-11-10T19:01:26.346Z,11.83
2018-11-10T19:03:54.649Z,11.66
2018-11-10T19:06:23.018Z,11.68
2018-11-10T19:08:51.361Z,11.72
2018-11-10T19:11:19.742Z,11.79
2018-11-10T19:13:48.115Z,11.68
2018-11-10T19:16:16.466Z,11.73
2018-11-10T19:18:44.782Z,11.67
2018-11-10T19:21:13.082Z,11.60
2018-11-10T19:23:41.514Z,11.43
2018-11-10T19:26:09.809Z,11.70
2018-11-10T19:28:38.217Z,11.72
2018-11-10T19:31:06.651Z,11.80
2018-11-10T19:33:35.019Z,11.77
2018-11-10T19:36:03.344Z,11.66
2018-11-10T19:38:31.664Z,11.66
2018-11-10T19:40:59.967Z,11.73
2018-11-10T19:43:28.258Z,11.80
2018-11-10T19:45:56.714Z,11.83
2018-11-10T19:48:25.087Z,11.74
2018-11-10T19:50:53.466Z,11.74
2018-11-10T19:53:21.699Z,11.79
2018-11-10T19:55:49.998Z,11.89
2018-11-10T19:58:18.302Z,11.81
2018-11-10T20:00:46.631Z,11.86
2018-11-10T20:03:15.906Z,11.95
2018-11-10T20:05:44.206Z,12.06
2018-11-10T20:08:12.738Z,12.01
2018-11-10T20:10:41.025Z,11.88
2018-11-10T20:13:09.373Z,11.94
2018-11-10T20:15:37.766Z,11.74
2018-11-10T20:18:06.346Z,11.74
2018-11-10T20:20:34.637Z,11.85
2018-11-10T20:23:03.067Z,11.79
2018-11-10T20:25:31.367Z,11.80
2018-11-10T20:27:59.654Z,11.95
2018-11-10T20:30:28.146Z,11.92
2018-11-10T20:32:56.605Z,11.86
2018-11-10T20:35:24.822Z,12.03
2018-11-10T20:37:53.526Z,12.01
2018-11-10T20:40:21.878Z,12.12
2018-11-10T20:42:50.172Z,12.11
2018-11-10T20:45:20.394Z,12.24
2018-11-10T20:47:48.694Z,12.16
2018-11-10T20:50:17.557Z,12.15
2018-11-10T20:52:45.871Z,12.10
2018-11-10T20:55:14.717Z,12.10
2018-11-10T20:57:43.013Z,12.01
2018-11-10T21:00:14.494Z,11.93
2018-11-10T21:02:43.335Z,12.01
2018-11-10T21:05:12.939Z,11.96
2018-11-10T21:07:41.459Z,12.03
2018-11-10T21:10:13.901Z,12.15
2018-11-10T21:12:42.962Z,12.15
2018-11-10T21:15:12.194Z,12.18
2018-11-10T21:17:40.533Z,12.23
2018-11-10T21:20:10.139Z,12.16
2018-11-10T21:22:38.406Z,12.11
2018-11-10T21:25:08.226Z,12.18
2018-11-10T21:27:36.653Z,12.32
2018-11-10T21:30:05.880Z,12.36
2018-11-10T21:32:34.134Z,12.38
2018-11-10T21:35:02.480Z,12.37
2018-11-10T21:37:30.742Z,12.42
2018-11-10T21:39:59.063Z,12.45
2018-11-10T21:42:27.498Z,12.45
2018-11-10T21:44:55.818Z,12.57
2018-11-10T21:47:24.109Z,12.54
2018-11-10T21:49:52.756Z,12.48
2018-11-10T21:52:21.126Z,12.59
2018-11-10T21:54:49.457Z,12.67
2018-11-10T21:57:17.750Z,12.66
2018-11-10T21:59:46.088Z,12.56
2018-11-10T22:02:14.385Z,12.69
2018-11-10T22:04:42.717Z,12.68
2018-11-10T22:07:11.006Z,12.55
2018-11-10T22:09:39.418Z,12.49
2018-11-10T22:12:07.694Z,12.65
2018-11-10T22:14:36.010Z,12.68
2018-11-10T22:17:04.422Z,12.60
2018-11-10T22:19:32.739Z,12.67
2018-11-10T22:22:01.024Z,12.89
2018-11-10T22:24:29.361Z,12.77
2018-11-10T22:26:57.650Z,12.69
2018-11-10T22:29:27.734Z,12.65
2018-11-10T22:31:56.050Z,12.67
2018-11-10T22:34:24.346Z,12.70
2018-11-10T22:36:52.674Z,12.62
2018-11-10T22:39:21.673Z,12.63
2018-11-10T22:41:50.040Z,12.49
2018-11-10T22:44:18.330Z,12.46
2018-11-10T22:46:46.712Z,12.46
2018-11-10T22:49:15.043Z,12.34
2018-11-10T22:51:43.387Z,12.44
2018-11-10T22:54:11.774Z,12.40
2018-11-10T22:56:40.133Z,12.20
2018-11-10T22:59:08.455Z,12.31
2018-11-10T23:01:36.798Z,12.44
2018-11-10T23:04:05.440Z,12.52
2018-11-10T23:06:33.823Z,12.35
2018-11-10T23:09:02.231Z,12.35
2018-11-10T23:11:30.671Z,12.24
2018-11-10T23:13:58.999Z,12.34
2018-11-10T23:16:27.314Z,12.40
2018-11-10T23:18:55.675Z,12.35
2018-11-10T23:21:24.063Z,12.34
2018-11-10T23:23:52.533Z,12.39
2018-11-10T23:26:20.938Z,12.62
2018-11-10T23:28:50.102Z,12.53
2018-11-10T23:31:18.426Z,12.31
2018-11-10T23:33:46.844Z,12.40
2018-11-10T23:36:15.160Z,12.31
2018-11-10T23:38:43.478Z,12.34
2018-11-10T23:41:12.123Z,12.41
2018-11-10T23:43:40.460Z,12.41
2018-11-10T23:46:08.823Z,12.41
2018-11-10T23:48:37.302Z,12.51
2018-11-10T23:51:07.034Z,12.38
2018-11-10T23:53:35.350Z,12.39
2018-11-10T23:56:04.863Z,12.62
2018-11-10T23:58:33.263Z,12.60
